Terminal Aerodrome Forecast
Issued by NWS Amarillo, TX

Home | Current Version | Previous Version | Text Only | Print | Product List | Glossary On
Versions: 1 2 3 4 5 6 7 8 9 10 11 12 13 14 15 16 17 18
000
FTUS44 KAMA 302300
TAFDHT
TAF
KDHT 302333Z 3100/3124 20010KT P6SM OVC030
      TEMPO 3100/3104 4SM -RASN BR OVC008
     FM310400 18010KT 1SM -SN BR OVC004
     FM311700 22012KT 3SM RA BR OVC007=

USA.gov is the U.S. government's official web portal to all federal, state and local government web resources and services.